Time;durP1;ratioP1;P1;durP2;ratioP2;P2;SDS_P1;SDS_P2;PMS_P1;PMS_P2;Temp;Humidity;BMP_temperature;BMP_pressure;BME280_temperature;BME280_humidity;BME280_pressure;Samples;Min_cycle;Max_cycle;Signal;HPM_P1;HPM_P2
2021/01/27 00:00:29;;;;;;;5.60;5.03;;;1.40;99.90;;;;;;5000461;28;20558;-80
2021/01/27 00:02:59;;;;;;;5.78;4.90;;;1.30;99.90;;;;;;5004529;28;20213;-79
2021/01/27 00:05:30;;;;;;;7.53;5.03;;;1.30;99.90;;;;;;4999846;28;20256;-80
2021/01/27 00:07:57;;;;;;;10.40;5.55;;;1.30;99.90;;;;;;4998492;28;20224;-79
2021/01/27 00:10:25;;;;;;;12.40;4.93;;;1.30;99.90;;;;;;5000432;28;20225;-79
2021/01/27 00:12:53;;;;;;;7.50;3.60;;;1.40;99.90;;;;;;5000986;28;20199;-81
2021/01/27 00:15:23;;;;;;;5.60;4.05;;;1.40;99.90;;;;;;5000229;28;20671;-82
2021/01/27 00:17:52;;;;;;;7.00;5.20;;;1.40;99.90;;;;;;4998487;28;20268;-81
2021/01/27 00:20:24;;;;;;;7.72;6.57;;;1.40;99.90;;;;;;5001628;28;20175;-79
2021/01/27 00:22:52;;;;;;;7.80;5.55;;;1.40;99.90;;;;;;5003434;28;20601;-79
2021/01/27 00:25:22;;;;;;;6.68;4.93;;;1.40;99.90;;;;;;5000237;28;20241;-80
2021/01/27 00:27:50;;;;;;;11.70;8.75;;;1.40;99.90;;;;;;5002629;28;20214;-80
2021/01/27 00:30:19;;;;;;;15.38;7.50;;;1.40;99.90;;;;;;5004002;28;20217;-79
2021/01/27 00:32:46;;;;;;;11.20;5.20;;;1.40;99.90;;;;;;5002409;28;20191;-79
2021/01/27 00:35:14;;;;;;;9.18;5.00;;;1.40;99.90;;;;;;5003652;28;20202;-80
2021/01/27 00:37:42;;;;;;;16.23;9.10;;;1.40;99.90;;;;;;5004661;28;20301;-79
2021/01/27 00:40:11;;;;;;;14.80;8.90;;;1.40;99.90;;;;;;5004395;28;20225;-81
2021/01/27 00:42:38;;;;;;;7.28;4.55;;;1.40;99.90;;;;;;5008644;28;20182;-80
2021/01/27 00:45:07;;;;;;;10.23;5.57;;;1.40;99.90;;;;;;5012953;28;20226;-80
2021/01/27 00:47:34;;;;;;;7.90;6.30;;;1.40;99.90;;;;;;5015550;28;20214;-79
2021/01/27 00:50:04;;;;;;;10.18;7.00;;;1.40;99.90;;;;;;5014919;28;20218;-79
2021/01/27 00:52:31;;;;;;;12.60;7.88;;;1.40;99.90;;;;;;5012663;28;20203;-79
2021/01/27 00:54:58;;;;;;;9.55;4.85;;;1.40;99.90;;;;;;5013222;28;20178;-79
2021/01/27 00:57:27;;;;;;;9.30;6.13;;;1.40;99.90;;;;;;5012045;28;20226;-79
2021/01/27 00:59:54;;;;;;;8.55;6.60;;;1.40;99.90;;;;;;5012319;28;20190;-80
2021/01/27 01:02:21;;;;;;;7.45;5.20;;;1.40;99.90;;;;;;5037005;28;20190;-80
2021/01/27 01:04:54;;;;;;;6.70;4.97;;;1.50;99.90;;;;;;5002257;28;20647;-81
2021/01/27 01:07:21;;;;;;;6.00;5.13;;;1.40;99.90;;;;;;5000664;28;20218;-78
2021/01/27 01:09:49;;;;;;;9.20;5.10;;;1.40;99.90;;;;;;5001506;28;20212;-79
2021/01/27 01:12:16;;;;;;;8.85;6.68;;;1.40;99.90;;;;;;5005616;28;20631;-80
2021/01/27 01:14:44;;;;;;;6.72;4.88;;;1.40;99.90;;;;;;5004952;28;20270;-80
2021/01/27 01:17:12;;;;;;;15.60;6.60;;;1.40;99.90;;;;;;5004860;28;20233;-79
2021/01/27 01:19:39;;;;;;;8.68;4.72;;;1.40;99.90;;;;;;5006959;28;20214;-79
2021/01/27 01:22:06;;;;;;;29.73;8.95;;;1.40;99.90;;;;;;5006182;28;20206;-80
2021/01/27 01:24:33;;;;;;;8.95;5.63;;;1.40;99.90;;;;;;5004244;28;20194;-80
2021/01/27 01:27:01;;;;;;;6.22;5.68;;;1.40;99.90;;;;;;5036742;28;20224;-79
2021/01/27 01:29:28;;;;;;;12.05;5.97;;;1.40;99.90;;;;;;5003748;28;20391;-79
2021/01/27 01:31:56;;;;;;;7.85;4.05;;;1.40;99.90;;;;;;5006625;28;20563;-79
2021/01/27 01:34:24;;;;;;;11.30;6.00;;;1.40;99.90;;;;;;5006939;28;20210;-80
2021/01/27 01:36:51;;;;;;;9.43;7.50;;;1.30;99.90;;;;;;5007767;28;20570;-79
2021/01/27 01:39:18;;;;;;;6.22;4.97;;;1.30;99.90;;;;;;5013028;28;20278;-77
2021/01/27 01:41:46;;;;;;;10.35;6.85;;;1.30;99.90;;;;;;5013310;28;20234;-79
2021/01/27 01:44:13;;;;;;;12.30;7.72;;;1.30;99.90;;;;;;5011745;28;20179;-79
2021/01/27 01:46:40;;;;;;;10.73;5.40;;;1.30;99.90;;;;;;5006410;28;20190;-79
2021/01/27 01:49:11;;;;;;;10.07;6.32;;;1.30;99.90;;;;;;5001718;28;20217;-80
2021/01/27 01:51:41;;;;;;;5.55;4.40;;;1.30;99.90;;;;;;5006314;28;20206;-79
2021/01/27 01:54:14;;;;;;;9.30;6.15;;;1.20;99.90;;;;;;5002043;28;20266;-80
2021/01/27 01:56:49;;;;;;;8.73;5.78;;;1.20;99.90;;;;;;5004856;28;20229;-78
2021/01/27 01:59:16;;;;;;;8.85;5.85;;;1.10;99.90;;;;;;5005688;28;20261;-79
2021/01/27 02:01:48;;;;;;;13.45;7.72;;;1.10;99.90;;;;;;5006828;28;20187;-79
2021/01/27 02:04:17;;;;;;;10.32;6.10;;;1.10;99.90;;;;;;5006779;28;20187;-78
2021/01/27 02:06:45;;;;;;;13.93;5.25;;;1.10;99.90;;;;;;5010038;28;20187;-80
2021/01/27 02:09:12;;;;;;;10.52;6.03;;;1.10;99.90;;;;;;5005817;28;20227;-80
2021/01/27 02:11:58;;;;;;;13.07;7.13;;;1.10;99.90;;;;;;5003146;28;20183;-80
2021/01/27 02:14:42;;;;;;;11.00;4.72;;;1.00;99.90;;;;;;5001798;28;20190;-79
2021/01/27 02:17:17;;;;;;;9.70;7.22;;;1.00;99.90;;;;;;5000233;28;20187;-80
2021/01/27 02:20:16;;;;;;;6.93;6.03;;;1.00;99.90;;;;;;5009886;28;20209;-78
2021/01/27 02:23:16;;;;;;;13.57;6.40;;;1.10;99.90;;;;;;5013720;28;20207;-79
2021/01/27 02:26:24;;;;;;;12.38;5.40;;;1.10;99.90;;;;;;5014524;28;20263;-79
2021/01/27 02:29:18;;;;;;;3.95;3.22;;;1.10;99.90;;;;;;5011389;28;20253;-79
2021/01/27 02:31:58;;;;;;;11.90;8.85;;;1.10;99.90;;;;;;5012702;28;20210;-79
2021/01/27 02:35:01;;;;;;;16.73;8.52;;;1.10;99.90;;;;;;5015595;28;20245;-78
2021/01/27 02:40:36;;;;;;;13.18;8.65;;;0.90;99.90;;;;;;4515921;27;20237;-53
2021/01/27 02:43:11;;;;;;;11.30;4.72;;;0.80;99.90;;;;;;4900551;29;20207;-51
2021/01/27 02:45:44;;;;;;;7.65;4.05;;;0.70;99.90;;;;;;4899445;29;20185;-48
2021/01/27 02:48:16;;;;;;;9.40;7.70;;;0.60;99.90;;;;;;4899332;29;20201;-46
2021/01/27 02:50:49;;;;;;;9.77;5.75;;;0.40;99.90;;;;;;4899957;29;20226;-51
2021/01/27 02:53:21;;;;;;;7.45;4.90;;;0.40;99.90;;;;;;4900151;29;20214;-49
2021/01/27 02:55:53;;;;;;;11.90;5.30;;;0.30;99.90;;;;;;4900159;29;20205;-50
2021/01/27 02:58:25;;;;;;;8.15;5.15;;;0.10;99.90;;;;;;4900124;29;20202;-49
2021/01/27 03:00:59;;;;;;;7.78;4.95;;;0.00;99.90;;;;;;4899597;29;20214;-52
2021/01/27 03:03:32;;;;;;;11.00;4.53;;;0.00;99.90;;;;;;4898028;29;20245;-56
2021/01/27 03:06:03;;;;;;;6.38;5.70;;;-0.10;99.90;;;;;;4897970;29;20452;-54
2021/01/27 03:08:35;;;;;;;10.32;4.00;;;-0.20;99.90;;;;;;4897751;29;20324;-50
2021/01/27 03:11:07;;;;;;;12.30;5.28;;;-0.20;99.90;;;;;;4897460;29;20282;-53
2021/01/27 03:13:35;;;;;;;4.72;2.97;;;-0.20;99.90;;;;;;4897161;29;20265;-48
2021/01/27 03:16:07;;;;;;;6.65;5.00;;;-0.30;99.90;;;;;;4896596;29;20198;-53
2021/01/27 03:18:38;;;;;;;19.95;6.60;;;-0.30;99.90;;;;;;4896687;29;20234;-52
2021/01/27 03:21:13;;;;;;;7.20;5.13;;;-0.40;99.90;;;;;;4896814;29;20226;-53
2021/01/27 03:23:47;;;;;;;14.52;6.75;;;-0.40;99.90;;;;;;4896941;29;20182;-52
2021/01/27 03:26:21;;;;;;;6.50;5.90;;;-0.40;99.90;;;;;;4896867;29;20306;-51
2021/01/27 03:28:55;;;;;;;7.43;4.55;;;-0.40;99.90;;;;;;4896903;29;20218;-54
2021/01/27 03:31:22;;;;;;;5.63;5.07;;;-0.50;99.90;;;;;;4896920;29;20218;-52
2021/01/27 03:33:57;;;;;;;4.85;4.38;;;-0.50;99.90;;;;;;4896120;29;20258;-52
2021/01/27 03:36:29;;;;;;;3.85;3.50;;;-0.50;99.90;;;;;;4895386;29;20200;-50
2021/01/27 03:38:57;;;;;;;5.15;4.30;;;-0.60;99.90;;;;;;4896356;29;20229;-50
2021/01/27 03:41:29;;;;;;;10.75;6.47;;;-0.60;99.90;;;;;;4896488;29;20214;-55
2021/01/27 03:44:04;;;;;;;10.50;6.25;;;-0.60;99.90;;;;;;4896570;29;20215;-55
2021/01/27 03:46:39;;;;;;;7.35;3.80;;;-0.60;99.90;;;;;;4897164;29;20276;-49
2021/01/27 03:49:11;;;;;;;6.55;5.40;;;-0.70;99.90;;;;;;4896522;29;20225;-52
2021/01/27 03:51:43;;;;;;;8.15;7.30;;;-0.50;99.90;;;;;;4896624;29;20218;-54
2021/01/27 03:54:16;;;;;;;11.40;6.07;;;-0.50;99.90;;;;;;4896801;29;20193;-53
2021/01/27 03:56:47;;;;;;;11.10;4.15;;;-0.40;99.90;;;;;;4896638;29;20213;-54
2021/01/27 03:59:14;;;;;;;11.48;4.13;;;-0.30;99.90;;;;;;4896886;29;20197;-53
2021/01/27 04:01:47;;;;;;;16.77;5.57;;;-0.20;99.90;;;;;;4896562;29;20558;-54
2021/01/27 04:04:14;;;;;;;9.35;7.03;;;-0.10;99.90;;;;;;4895201;29;20186;-50
2021/01/27 04:06:42;;;;;;;11.25;8.75;;;-0.10;99.90;;;;;;4896510;29;20698;-51
2021/01/27 04:09:10;;;;;;;11.50;7.43;;;0.00;99.90;;;;;;4896398;29;20183;-54
2021/01/27 04:11:37;;;;;;;12.82;8.88;;;0.00;99.90;;;;;;4896182;29;20496;-55
2021/01/27 04:14:05;;;;;;;7.50;6.53;;;0.10;99.90;;;;;;4896368;29;20863;-52
2021/01/27 04:16:32;;;;;;;14.70;5.80;;;0.10;99.90;;;;;;4896595;29;20185;-52
2021/01/27 04:19:01;;;;;;;11.40;7.75;;;0.10;99.90;;;;;;4896319;29;20326;-50
2021/01/27 04:21:28;;;;;;;16.70;6.57;;;0.20;99.90;;;;;;4896478;29;20225;-54
2021/01/27 04:23:57;;;;;;;19.02;10.85;;;0.10;99.90;;;;;;4895879;29;20182;-51
2021/01/27 04:26:24;;;;;;;13.73;6.50;;;0.10;99.90;;;;;;4896613;29;20198;-54
2021/01/27 04:28:52;;;;;;;18.65;8.50;;;0.20;99.90;;;;;;4895679;29;20191;-53
2021/01/27 04:31:19;;;;;;;15.30;9.18;;;0.10;99.90;;;;;;4895639;29;20227;-54
2021/01/27 04:33:47;;;;;;;19.60;10.57;;;0.10;99.90;;;;;;4895818;29;20182;-50
2021/01/27 04:36:15;;;;;;;8.02;5.45;;;0.10;99.90;;;;;;4895987;29;20584;-53
2021/01/27 04:38:43;;;;;;;8.52;6.40;;;0.10;99.90;;;;;;4895689;29;20636;-50
2021/01/27 04:41:11;;;;;;;9.55;6.07;;;0.10;99.90;;;;;;4895680;29;20217;-51
2021/01/27 04:43:41;;;;;;;6.47;5.85;;;0.10;99.90;;;;;;4894052;29;20198;-53
2021/01/27 04:46:12;;;;;;;18.00;9.30;;;0.10;99.90;;;;;;4895724;29;20194;-53
2021/01/27 04:48:48;;;;;;;13.50;9.00;;;0.10;99.90;;;;;;4895793;29;20612;-52
2021/01/27 04:51:21;;;;;;;9.50;3.95;;;0.10;99.90;;;;;;4895645;29;20730;-54
2021/01/27 04:53:59;;;;;;;8.95;4.53;;;0.10;99.90;;;;;;4895397;29;20185;-52
2021/01/27 04:57:02;;;;;;;13.07;6.88;;;0.10;99.90;;;;;;4895577;29;20213;-53
2021/01/27 04:59:44;;;;;;;9.20;7.50;;;0.20;99.90;;;;;;4895446;29;20198;-55
2021/01/27 05:02:27;;;;;;;11.05;5.45;;;0.10;99.90;;;;;;4895750;29;20587;-51
2021/01/27 05:05:07;;;;;;;10.10;6.45;;;0.10;99.90;;;;;;4895701;29;20557;-54
2021/01/27 05:07:50;;;;;;;9.63;5.18;;;0.00;99.90;;;;;;4895739;29;20193;-51
2021/01/27 05:10:21;;;;;;;13.10;6.70;;;0.00;99.90;;;;;;4895427;29;20221;-52
2021/01/27 05:12:55;;;;;;;15.27;4.93;;;0.00;99.90;;;;;;4895598;29;20657;-50
2021/01/27 05:15:23;;;;;;;10.50;7.25;;;0.00;99.90;;;;;;4895897;29;20269;-50
2021/01/27 05:17:52;;;;;;;10.50;7.45;;;0.00;99.90;;;;;;4894718;29;20338;-53
2021/01/27 05:20:21;;;;;;;13.70;9.10;;;0.10;99.90;;;;;;4895552;29;20777;-54
2021/01/27 05:22:49;;;;;;;14.27;8.75;;;0.10;99.90;;;;;;4896435;29;20182;-51
2021/01/27 05:25:29;;;;;;;16.63;6.95;;;0.20;99.90;;;;;;4897104;29;20200;-48
2021/01/27 05:28:00;;;;;;;8.68;6.03;;;0.20;99.90;;;;;;4897563;29;20190;-50
2021/01/27 05:30:32;;;;;;;10.75;6.47;;;0.20;99.90;;;;;;4897020;29;20250;-53
2021/01/27 05:33:01;;;;;;;14.88;8.75;;;0.30;99.90;;;;;;4896929;29;20183;-49
2021/01/27 05:35:32;;;;;;;10.55;7.75;;;0.30;99.90;;;;;;4896846;29;20201;-52
2021/01/27 05:38:17;;;;;;;19.38;6.07;;;0.30;99.90;;;;;;4897075;29;20622;-53
2021/01/27 05:40:44;;;;;;;13.25;6.20;;;0.30;99.90;;;;;;4896503;29;20210;-51
2021/01/27 05:43:19;;;;;;;8.00;6.93;;;0.40;99.90;;;;;;4897023;29;20234;-49
2021/01/27 05:45:48;;;;;;;15.45;9.05;;;0.50;99.90;;;;;;4896925;29;20194;-50
2021/01/27 05:48:26;;;;;;;15.02;8.20;;;0.50;99.90;;;;;;4896781;29;20212;-53
2021/01/27 05:51:10;;;;;;;16.60;10.45;;;0.60;99.90;;;;;;4896380;29;20214;-53
2021/01/27 05:53:38;;;;;;;14.25;9.00;;;0.70;99.90;;;;;;4896559;29;20196;-49
2021/01/27 05:56:12;;;;;;;15.02;10.27;;;0.80;99.90;;;;;;4897898;29;20180;-48
2021/01/27 05:58:45;;;;;;;17.83;11.30;;;0.80;99.90;;;;;;4899960;29;20190;-52
2021/01/27 06:01:18;;;;;;;15.95;10.07;;;0.90;99.90;;;;;;4900153;29;20611;-55
2021/01/27 06:04:01;;;;;;;10.38;6.45;;;0.80;99.90;;;;;;4900303;29;20583;-49
2021/01/27 06:06:32;;;;;;;23.33;11.80;;;0.90;99.90;;;;;;4899869;29;20178;-54
2021/01/27 06:09:04;;;;;;;16.25;10.23;;;0.90;99.90;;;;;;4900587;29;20186;-51
2021/01/27 06:11:31;;;;;;;19.13;12.90;;;0.90;99.90;;;;;;4899695;29;20241;-50
2021/01/27 06:14:09;;;;;;;16.85;9.80;;;0.90;99.90;;;;;;4899853;29;20178;-53
2021/01/27 06:16:43;;;;;;;19.45;12.95;;;1.00;99.90;;;;;;4899881;29;20186;-52
2021/01/27 06:19:12;;;;;;;19.13;12.00;;;1.00;99.90;;;;;;4899628;29;20174;-50
2021/01/27 06:22:22;;;;;;;20.95;11.40;;;1.00;99.90;;;;;;4899885;29;20818;-52
2021/01/27 06:25:09;;;;;;;14.15;9.43;;;1.00;99.90;;;;;;4899651;29;20189;-47
2021/01/27 06:28:04;;;;;;;27.30;12.88;;;1.00;99.90;;;;;;4899660;29;20193;-52
2021/01/27 06:30:46;;;;;;;27.00;15.00;;;1.10;99.90;;;;;;4899761;29;20218;-51
2021/01/27 06:33:47;;;;;;;20.98;11.80;;;1.20;99.90;;;;;;4899352;29;20209;-50
2021/01/27 06:36:42;;;;;;;18.85;12.32;;;1.20;99.90;;;;;;4866264;29;20202;-50
2021/01/27 06:39:44;;;;;;;15.95;10.18;;;1.30;99.90;;;;;;4900050;29;20202;-52
2021/01/27 06:42:24;;;;;;;18.65;12.30;;;1.30;99.90;;;;;;4876419;29;20716;-54
2021/01/27 06:45:02;;;;;;;19.50;12.73;;;1.30;99.90;;;;;;4899411;29;20555;-52
2021/01/27 06:48:17;;;;;;;24.00;16.10;;;1.30;99.90;;;;;;4899299;29;20665;-49
2021/01/27 06:50:58;;;;;;;23.35;12.48;;;1.40;99.90;;;;;;4877749;29;20272;-50
2021/01/27 06:53:53;;;;;;;20.73;15.20;;;1.50;99.90;;;;;;4899439;29;20234;-51
2021/01/27 06:56:31;;;;;;;17.63;9.65;;;1.50;99.90;;;;;;4913349;29;20236;-55
2021/01/27 06:59:52;;;;;;;18.23;9.30;;;1.40;99.90;;;;;;4899325;29;20189;-49
2021/01/27 07:02:52;;;;;;;15.25;10.07;;;1.40;99.90;;;;;;4847138;29;20801;-53
2021/01/27 07:05:56;;;;;;;28.00;13.90;;;1.40;99.90;;;;;;4899134;29;20209;-50
2021/01/27 07:08:40;;;;;;;16.92;11.40;;;1.40;99.90;;;;;;4898852;29;20194;-53
2021/01/27 07:11:08;;;;;;;33.83;12.18;;;1.40;99.90;;;;;;4899148;29;20222;-53
2021/01/27 07:14:08;;;;;;;26.02;15.93;;;1.40;99.90;;;;;;4899110;29;20179;-50
2021/01/27 07:17:09;;;;;;;29.52;11.90;;;1.40;99.90;;;;;;4899499;29;20183;-49
2021/01/27 07:20:01;;;;;;;23.80;10.85;;;1.30;99.90;;;;;;4899620;29;20193;-49
2021/01/27 07:22:35;;;;;;;22.50;10.40;;;1.40;99.90;;;;;;4899195;29;20285;-48
2021/01/27 07:25:10;;;;;;;13.43;9.13;;;1.50;99.90;;;;;;4898932;29;20304;-49
2021/01/27 07:27:45;;;;;;;22.50;13.40;;;1.50;99.90;;;;;;4898499;29;20265;-52
2021/01/27 07:30:18;;;;;;;18.95;11.13;;;1.60;99.90;;;;;;4898061;29;20629;-52
2021/01/27 07:32:51;;;;;;;21.30;11.75;;;1.60;99.90;;;;;;4898298;29;20185;-49
2021/01/27 07:35:23;;;;;;;18.30;12.30;;;1.60;99.90;;;;;;4898131;29;20189;-54
2021/01/27 07:37:58;;;;;;;18.63;14.13;;;1.60;99.90;;;;;;4898135;29;20225;-51
2021/01/27 07:40:31;;;;;;;15.45;8.57;;;1.60;99.90;;;;;;4898086;29;20768;-50
2021/01/27 07:43:05;;;;;;;20.85;10.60;;;1.60;99.90;;;;;;4898134;29;20174;-54
2021/01/27 07:45:34;;;;;;;17.15;11.00;;;1.60;99.90;;;;;;4898044;29;20185;-49
2021/01/27 07:48:13;;;;;;;15.48;10.27;;;1.60;99.90;;;;;;4897970;29;20370;-51
2021/01/27 07:50:41;;;;;;;22.25;9.85;;;1.70;99.90;;;;;;4897895;29;20270;-51
2021/01/27 07:53:17;;;;;;;14.57;9.57;;;1.70;99.90;;;;;;4897762;29;20179;-51
2021/01/27 07:55:55;;;;;;;26.10;14.40;;;1.80;99.90;;;;;;4897813;29;20253;-52
2021/01/27 07:58:29;;;;;;;20.70;11.20;;;1.80;99.90;;;;;;4897779;29;20233;-49
2021/01/27 08:01:00;;;;;;;21.85;11.40;;;1.80;99.90;;;;;;4898264;29;20553;-50
2021/01/27 08:03:42;;;;;;;23.90;10.05;;;1.80;99.90;;;;;;4897634;29;20269;-50
2021/01/27 08:06:14;;;;;;;19.40;12.80;;;1.80;99.90;;;;;;4897615;29;20182;-52
2021/01/27 08:08:50;;;;;;;19.20;11.57;;;1.90;99.90;;;;;;4897547;29;20586;-53
2021/01/27 08:11:27;;;;;;;19.13;11.00;;;2.00;99.90;;;;;;4897077;29;20229;-50
2021/01/27 08:13:55;;;;;;;16.95;9.85;;;2.00;99.90;;;;;;4897286;29;20222;-48
2021/01/27 08:16:32;;;;;;;21.65;11.50;;;2.00;99.90;;;;;;4897501;29;20202;-50
2021/01/27 08:19:22;;;;;;;17.02;9.57;;;2.00;99.90;;;;;;4896591;29;20245;-52
2021/01/27 08:21:53;;;;;;;14.63;12.13;;;2.10;99.90;;;;;;4897091;29;20229;-50
2021/01/27 08:24:53;;;;;;;18.40;8.63;;;2.10;99.90;;;;;;4896911;29;20261;-52
2021/01/27 08:27:35;;;;;;;23.55;12.18;;;2.10;99.90;;;;;;4897148;29;20684;-51
2021/01/27 08:30:24;;;;;;;21.23;12.48;;;2.10;99.90;;;;;;4897177;29;20386;-51
2021/01/27 08:33:27;;;;;;;15.85;10.35;;;2.20;99.90;;;;;;4897237;29;20578;-53
2021/01/27 08:36:03;;;;;;;16.95;10.85;;;2.30;99.90;;;;;;4897109;29;20185;-53
2021/01/27 08:38:33;;;;;;;14.23;11.65;;;2.30;99.90;;;;;;4922393;23;20730;-54
2021/01/27 08:41:02;;;;;;;12.70;8.82;;;2.50;99.90;;;;;;4934521;29;20698;-55
2021/01/27 08:43:36;;;;;;;20.00;12.77;;;2.50;99.90;;;;;;4934412;29;20193;-59
2021/01/27 08:46:34;;;;;;;14.77;8.85;;;2.50;99.90;;;;;;4934643;29;20185;-54
2021/01/27 08:49:02;;;;;;;19.02;12.52;;;2.60;99.90;;;;;;4934360;29;20180;-56
2021/01/27 08:51:57;;;;;;;20.42;13.23;;;2.50;99.90;;;;;;4931349;29;20225;-57
2021/01/27 08:54:29;;;;;;;12.70;9.15;;;2.60;99.90;;;;;;4934419;29;20193;-57
2021/01/27 08:57:19;;;;;;;17.33;12.57;;;2.50;99.90;;;;;;4935216;29;20181;-55
2021/01/27 09:00:12;;;;;;;17.00;11.98;;;2.60;99.90;;;;;;4923902;29;20671;-57
2021/01/27 09:02:50;;;;;;;20.38;11.40;;;2.60;99.90;;;;;;4925693;29;20221;-60
2021/01/27 09:05:37;;;;;;;19.27;11.20;;;2.60;99.90;;;;;;4934678;29;20590;-61
2021/01/27 09:08:30;;;;;;;26.58;12.73;;;2.70;99.90;;;;;;4926412;29;20641;-57
2021/01/27 09:11:00;;;;;;;21.23;11.30;;;2.80;99.90;;;;;;4934690;29;20230;-57
2021/01/27 09:13:36;;;;;;;32.20;14.15;;;2.80;99.90;;;;;;4934770;29;20188;-57
2021/01/27 09:16:08;;;;;;;15.70;11.35;;;2.90;99.90;;;;;;4934223;29;20200;-53
2021/01/27 09:18:36;;;;;;;20.52;12.80;;;3.10;99.90;;;;;;4934443;29;20887;-57
2021/01/27 09:21:06;;;;;;;18.23;11.00;;;3.20;99.90;;;;;;4933667;29;20212;-55
2021/01/27 09:23:35;;;;;;;13.50;10.45;;;3.20;99.90;;;;;;4940687;29;20188;-62
2021/01/27 09:26:13;;;;;;;18.80;10.88;;;3.20;99.90;;;;;;4941109;28;20196;-57
2021/01/27 09:28:41;;;;;;;21.77;12.15;;;3.20;99.90;;;;;;4916478;29;20229;-55
2021/01/27 09:31:18;;;;;;;19.15;11.65;;;3.20;99.90;;;;;;4916533;29;20260;-55
2021/01/27 09:33:46;;;;;;;20.95;11.38;;;3.10;99.90;;;;;;4919900;29;20549;-55
2021/01/27 09:36:20;;;;;;;20.35;13.68;;;3.20;99.90;;;;;;4919081;29;20193;-57
2021/01/27 09:38:50;;;;;;;27.38;11.35;;;3.20;99.90;;;;;;4919367;29;20201;-59
2021/01/27 09:41:23;;;;;;;28.42;14.35;;;3.30;99.90;;;;;;4931996;29;20216;-55
2021/01/27 09:43:51;;;;;;;22.35;13.20;;;3.50;99.90;;;;;;4956843;28;20267;-58
2021/01/27 09:46:26;;;;;;;18.58;11.50;;;3.60;99.90;;;;;;4956644;28;20192;-59
2021/01/27 09:48:56;;;;;;;15.57;11.15;;;3.60;99.90;;;;;;4956415;28;20405;-55
2021/01/27 09:51:25;;;;;;;24.58;12.70;;;3.70;99.90;;;;;;4956256;28;20316;-52
2021/01/27 09:53:56;;;;;;;17.15;11.48;;;3.80;99.90;;;;;;4956124;28;20258;-56
2021/01/27 09:56:25;;;;;;;17.63;11.60;;;3.90;99.90;;;;;;4956165;28;20196;-59
2021/01/27 09:58:53;;;;;;;15.57;10.77;;;4.00;99.90;;;;;;4956224;28;20202;-58
2021/01/27 10:01:23;;;;;;;18.55;12.60;;;4.10;99.90;;;;;;4956505;28;20292;-57
2021/01/27 10:03:54;;;;;;;15.45;9.25;;;4.20;99.90;;;;;;4956375;28;20227;-55
2021/01/27 10:06:37;;;;;;;14.13;9.68;;;4.30;99.90;;;;;;4956489;28;20199;-59
2021/01/27 10:09:12;;;;;;;25.25;10.32;;;4.10;99.90;;;;;;4956183;28;20184;-54
2021/01/27 10:11:41;;;;;;;19.38;11.48;;;4.10;99.90;;;;;;4956583;28;20250;-58
2021/01/27 10:14:12;;;;;;;16.58;10.38;;;4.10;99.90;;;;;;4954730;29;20679;-59
2021/01/27 10:16:53;;;;;;;20.88;9.63;;;4.30;99.90;;;;;;4955264;28;20192;-56
2021/01/27 10:19:25;;;;;;;20.48;11.75;;;4.60;99.90;;;;;;4956167;28;20299;-59
2021/01/27 10:21:54;;;;;;;18.27;11.05;;;4.90;99.90;;;;;;4956943;28;20235;-56
2021/01/27 10:24:52;;;;;;;20.20;14.18;;;4.90;99.90;;;;;;4957277;28;20606;-61
2021/01/27 10:27:23;;;;;;;16.40;11.05;;;5.10;99.90;;;;;;4898709;29;20209;-60
2021/01/27 10:29:51;;;;;;;18.25;10.45;;;4.90;99.90;;;;;;4947038;28;20208;-55
2021/01/27 10:32:32;;;;;;;16.55;10.60;;;4.80;99.90;;;;;;4958702;28;20227;-59
2021/01/27 10:35:01;;;;;;;16.35;9.13;;;4.50;99.90;;;;;;4959292;28;20177;-58
2021/01/27 10:37:34;;;;;;;15.85;10.90;;;4.30;99.90;;;;;;4959540;28;20537;-53
2021/01/27 10:40:22;;;;;;;20.95;10.45;;;4.40;99.90;;;;;;4958987;28;20200;-56
2021/01/27 10:42:51;;;;;;;14.57;11.05;;;4.40;99.90;;;;;;4958641;28;20196;-57
2021/01/27 10:45:34;;;;;;;14.05;11.10;;;4.50;99.90;;;;;;4956981;28;20231;-55
2021/01/27 10:48:23;;;;;;;11.52;8.88;;;4.60;99.90;;;;;;4956690;28;20652;-56
2021/01/27 10:50:52;;;;;;;15.40;10.80;;;4.70;99.90;;;;;;4956135;28;20624;-54
2021/01/27 10:53:34;;;;;;;14.43;8.23;;;5.50;99.90;;;;;;4956290;28;20195;-56
2021/01/27 10:56:01;;;;;;;17.48;11.02;;;5.80;99.90;;;;;;4955219;28;20196;-57
2021/01/27 10:58:28;;;;;;;20.67;12.55;;;6.10;99.90;;;;;;4955158;28;20278;-56
2021/01/27 11:00:56;;;;;;;15.98;8.77;;;6.40;99.90;;;;;;4955034;28;20445;-56
2021/01/27 11:03:24;;;;;;;13.50;8.10;;;6.60;99.90;;;;;;4944123;28;20417;-59
2021/01/27 11:05:51;;;;;;;14.50;6.78;;;7.00;99.90;;;;;;4935723;29;20189;-54
2021/01/27 11:08:24;;;;;;;14.80;9.75;;;7.00;99.90;;;;;;4936058;29;20193;-58
2021/01/27 11:10:53;;;;;;;12.85;8.77;;;6.70;99.90;;;;;;4935797;29;20216;-55
2021/01/27 11:13:21;;;;;;;15.70;10.95;;;6.70;99.90;;;;;;4936098;29;20185;-59
2021/01/27 11:15:48;;;;;;;12.52;7.70;;;6.60;99.90;;;;;;4936112;29;20599;-56
2021/01/27 11:18:15;;;;;;;15.10;9.80;;;6.60;99.90;;;;;;4935906;29;20196;-58
2021/01/27 11:20:45;;;;;;;11.57;9.52;;;6.40;99.90;;;;;;4941563;29;20730;-60
2021/01/27 11:23:12;;;;;;;12.43;8.10;;;6.60;99.90;;;;;;4954957;28;20192;-57
2021/01/27 11:25:40;;;;;;;17.15;9.93;;;7.00;99.90;;;;;;4955310;28;20199;-58
2021/01/27 11:28:07;;;;;;;13.27;8.35;;;7.40;99.90;;;;;;4954687;28;20184;-57
2021/01/27 11:30:34;;;;;;;15.57;9.05;;;7.40;99.90;;;;;;4954882;28;20238;-59
2021/01/27 11:33:01;;;;;;;15.38;9.98;;;7.30;99.90;;;;;;4954923;28;20203;-57
2021/01/27 11:35:29;;;;;;;13.18;8.35;;;7.10;99.90;;;;;;4955363;28;20558;-56
2021/01/27 11:37:57;;;;;;;10.10;7.47;;;7.10;99.90;;;;;;4955144;28;20686;-53
2021/01/27 11:40:26;;;;;;;12.15;8.68;;;7.10;99.90;;;;;;4955420;28;20302;-59
2021/01/27 11:42:53;;;;;;;11.25;9.00;;;7.00;99.90;;;;;;4954957;28;20191;-60
2021/01/27 11:45:22;;;;;;;11.18;8.07;;;7.00;99.90;;;;;;4954687;28;20192;-59
2021/01/27 11:47:49;;;;;;;8.77;7.63;;;6.70;99.90;;;;;;4953518;28;20204;-59
2021/01/27 11:50:20;;;;;;;10.35;6.65;;;6.70;99.90;;;;;;4953983;28;20691;-59
2021/01/27 11:52:49;;;;;;;10.00;7.40;;;6.90;99.90;;;;;;4953410;28;20567;-57
2021/01/27 11:55:18;;;;;;;8.70;5.25;;;7.30;99.90;;;;;;4953525;28;20203;-59
2021/01/27 11:57:46;;;;;;;12.40;7.90;;;7.50;99.90;;;;;;4954341;28;20200;-59
2021/01/27 12:00:16;;;;;;;9.38;5.65;;;7.70;99.90;;;;;;4953522;28;20196;-61
2021/01/27 12:02:43;;;;;;;13.27;7.80;;;7.40;99.90;;;;;;4954764;28;20196;-59
2021/01/27 12:05:12;;;;;;;9.40;6.03;;;7.00;99.90;;;;;;4954686;28;20655;-58
2021/01/27 12:07:39;;;;;;;9.80;6.03;;;6.80;99.90;;;;;;4954040;28;20203;-57
2021/01/27 12:10:07;;;;;;;9.52;4.95;;;7.00;99.90;;;;;;4954673;28;20192;-61
2021/01/27 12:12:35;;;;;;;8.25;6.40;;;6.80;99.90;;;;;;4955257;28;20215;-55
2021/01/27 12:15:04;;;;;;;11.93;6.88;;;6.60;99.90;;;;;;4953612;29;20204;-58
2021/01/27 12:17:31;;;;;;;8.02;5.45;;;6.40;99.90;;;;;;4954165;28;20432;-59
2021/01/27 12:19:59;;;;;;;9.60;5.05;;;6.70;99.90;;;;;;4954496;28;20188;-58
2021/01/27 12:22:26;;;;;;;6.45;4.50;;;7.00;99.90;;;;;;4954325;28;20663;-59
2021/01/27 12:24:53;;;;;;;7.30;5.95;;;6.90;99.90;;;;;;4954646;28;20204;-57
2021/01/27 12:27:21;;;;;;;9.20;5.03;;;7.00;99.90;;;;;;4954393;28;20203;-57
2021/01/27 12:29:49;;;;;;;8.90;6.18;;;7.30;99.90;;;;;;4943465;28;20687;-63
2021/01/27 12:32:16;;;;;;;11.25;6.65;;;7.20;99.90;;;;;;4926629;29;20722;-60
2021/01/27 12:34:43;;;;;;;7.15;6.32;;;7.10;99.90;;;;;;4934937;29;20204;-58
2021/01/27 12:37:11;;;;;;;8.43;5.80;;;7.10;99.90;;;;;;4935892;29;20235;-57
2021/01/27 12:39:38;;;;;;;5.57;4.60;;;6.70;99.90;;;;;;4934658;29;20229;-54
2021/01/27 12:42:07;;;;;;;8.40;4.78;;;6.40;99.90;;;;;;4935823;29;20212;-58
2021/01/27 12:44:43;;;;;;;9.70;6.88;;;6.50;99.90;;;;;;4934983;29;20176;-57
2021/01/27 12:47:12;;;;;;;11.63;6.75;;;6.50;99.90;;;;;;4934590;29;20195;-55
2021/01/27 12:49:39;;;;;;;7.68;5.13;;;6.50;99.90;;;;;;4936106;29;20267;-58
2021/01/27 12:52:07;;;;;;;6.00;5.38;;;6.60;99.90;;;;;;4935052;29;20235;-58
2021/01/27 12:54:34;;;;;;;10.70;6.47;;;6.90;99.90;;;;;;4935604;29;20539;-57
2021/01/27 12:57:01;;;;;;;6.68;5.38;;;7.10;99.90;;;;;;4935738;29;20205;-56
2021/01/27 12:59:29;;;;;;;8.35;5.70;;;7.10;99.90;;;;;;4935689;29;20263;-54
2021/01/27 13:01:56;;;;;;;11.90;6.78;;;7.10;99.90;;;;;;4934336;29;20591;-58
2021/01/27 13:04:25;;;;;;;10.48;7.05;;;7.20;99.90;;;;;;4934732;29;20272;-58
2021/01/27 13:06:52;;;;;;;10.25;6.95;;;6.90;99.90;;;;;;4937875;29;20187;-59
2021/01/27 13:09:19;;;;;;;9.80;6.78;;;6.50;99.90;;;;;;4937772;29;20579;-60
2021/01/27 13:11:51;;;;;;;7.80;5.18;;;6.80;99.90;;;;;;4936977;29;20213;-58
2021/01/27 13:14:19;;;;;;;8.18;5.38;;;6.60;99.90;;;;;;4937053;29;20193;-59
2021/01/27 13:16:46;;;;;;;7.32;6.03;;;6.00;99.90;;;;;;4937238;29;20557;-60
2021/01/27 13:19:14;;;;;;;6.68;4.82;;;5.70;99.90;;;;;;4936974;29;20200;-56
2021/01/27 13:21:43;;;;;;;8.60;5.43;;;5.60;99.90;;;;;;4937384;29;20208;-55